Retriever — WDF7681 — position and weather

sailwx.info

Track history (hours):
 
Tides and Currents Weather Stations Pressure Air Temp Water Temp Dewpoint Dewpoint Depression Visibility Wind Speed Wind Dir Waves Ship Positions

Retriever

Owner: Retriever Tender Alaska, LLC, Astoria, OR. More information available from US FCC via Universal Licensing System and Coast Guard Vessel Documentation Center.

Last reported at 2018-May-15 18:13 UTC. Time now 2018-Jun-25 19:29 UTC.
Position N 58°15' W 136°03'.
Warning: this ship's position is 41 days out of date.

Length 40 m; draft 3 m.

Type: . MMSI: 367487020.

Date/timePositionNaut miles runAvg speedWind from/ knotsBaromVisibWave heightAir tempDewpointWater temp
2018-May-15 18:13N 58°15' W 136°03'1 5.8
2018-May-15 17:59N 58°16' W 136°01'3 6.3
2018-May-15 17:27N 58°18' W 135°55'  
2018-May-12 10:48N 54°45' W 130°55'10 9.3
2018-May-12 09:43N 54°38' W 130°42'2 8.6
2018-May-12 09:28N 54°36' W 130°40'4 8.6
2018-May-12 09:00N 54°32' W 130°39'5 9.1
2018-May-12 08:30N 54°28' W 130°37'5 9.0
2018-May-12 08:00N 54°23' W 130°36'5 9.0
2018-May-12 07:30N 54°19' W 130°34'4 9.1
2018-May-12 07:00N 54°15' W 130°31'5 9.3
2018-May-12 06:30N 54°11' W 130°27'5 9.2
2018-May-12 06:00N 54°07' W 130°23'5 9.1
2018-May-12 05:30N 54°04' W 130°16'5 9.5
2018-May-12 05:00N 53°60' W 130°13'4 8.8
2018-May-12 04:30N 53°55' W 130°11'4 8.4
2018-May-12 04:00N 53°53' W 130°06'4 7.3
2018-May-12 03:30N 53°50' W 130°01'4 7.1
2018-May-12 03:00N 53°48' W 129°57'96 7.5
2018-May-11 14:16N 52°28' W 128°27'2 9.6
2018-May-11 14:00N 52°26' W 128°29'6 8.4
2018-May-11 13:15N 52°19' W 128°30'2 9.5
2018-May-11 13:00N 52°17' W 128°29'4 7.9
2018-May-11 12:30N 52°15' W 128°24'5 9.4
2018-May-11 12:00N 52°15' W 128°16'5 9.1
2018-May-11 11:29N 52°13' W 128°09'3 7.3
2018-May-11 11:00N 52°09' W 128°08'4 9.0
2018-May-11 10:31N 52°05' W 128°07'5 9.0
2018-May-11 10:00N 52°05' W 127°59'4 8.0
2018-May-11 09:30N 52°02' W 127°55'4 8.9
2018-May-11 09:00N 51°57' W 127°56'5 9.0
2018-May-11 08:30N 51°53' W 127°57'5 9.3
2018-May-11 08:00N 51°48' W 127°57'5 9.3
2018-May-11 07:30N 51°43' W 127°55'4 9.0
2018-May-11 07:00N 51°39' W 127°54'5 9.2
2018-May-11 06:30N 51°35' W 127°52'5 9.4
2018-May-11 06:00N 51°30' W 127°51'5 9.0
2018-May-11 05:30N 51°25' W 127°52'4 8.9
2018-May-11 05:00N 51°23' W 127°57'5 8.3
2018-May-11 04:24N 51°18' W 127°55'4 8.7
2018-May-11 03:53N 51°14' W 127°53'4 9.1
2018-May-11 03:28N 51°10' W 127°51'4 9.1
2018-May-11 03:00N 51°06' W 127°48'5 8.8
2018-May-11 02:29N 51°02' W 127°46'4 7.5
2018-May-11 02:00N 50°58' W 127°45'4 8.4
2018-May-11 01:30N 50°55' W 127°40'4 8.8
2018-May-11 01:00N 50°52' W 127°35'4 8.9
2018-May-11 00:30N 50°50' W 127°29'4 8.8
2018-May-11 00:00N 50°47' W 127°24'5 9.1
2018-May-10 23:28N 50°44' W 127°18'5 9.2
2018-May-10 22:54N 50°40' W 127°13'4 9.6
2018-May-10 22:28N 50°37' W 127°07'5 9.6
2018-May-10 21:59N 50°36' W 127°00'5 8.9
2018-May-10 21:27N 50°34' W 126°54'57 9.1
2018-May-10 15:12N 50°20' W 125°27'2 9.1
2018-May-10 15:00N 50°19' W 125°25'5 9.8
2018-May-10 14:30N 50°14' W 125°23'510.5
2018-May-10 14:00N 50°09' W 125°21'511.1
2018-May-10 13:30N 50°05' W 125°16'712.5
2018-May-10 12:57N 49°59' W 125°11'4 9.8
2018-May-10 12:30N 49°56' W 125°06'5 9.4
2018-May-10 12:00N 49°52' W 125°01'5 9.4
2018-May-10 11:30N 49°49' W 124°56'1 1.0
2018-May-10 11:00N 49°48' W 124°56'3 6.2
2018-May-10 10:30N 49°46' W 124°53'5 9.0
2018-May-10 10:00N 49°42' W 124°48'4 8.8
2018-May-10 09:30N 49°39' W 124°43'5 9.2
2018-May-10 08:59N 49°36' W 124°38'12 8.9
2018-May-10 07:37N 49°28' W 124°24'4 8.9
2018-May-10 07:11N 49°26' W 124°19'2 9.1
2018-May-10 07:00N 49°25' W 124°16'32 8.8
2018-May-10 03:20N 49°09' W 123°34'10 9.7
2018-May-10 02:21N 49°02' W 123°24'2 6.8
2018-May-10 02:00N 49°02' W 123°20'16 8.5
2018-May-10 00:04N 48°52' W 123°00'13 8.4
2018-May-09 22:34N 48°44' W 122°45'1 8.8
2018-May-09 22:29N 48°43' W 122°45'4 8.0
2018-May-09 22:00N 48°40' W 122°43'4 8.3
2018-May-09 21:30N 48°36' W 122°45'4 8.3
2018-May-09 21:00N 48°32' W 122°45'4 8.4
2018-May-09 20:28N 48°27' W 122°44'10 8.9
2018-May-09 19:20N 48°17' W 122°46'3 8.6
2018-May-09 19:00N 48°14' W 122°47'20 8.7
2018-May-09 16:44N 47°57' W 122°32'2 9.4
2018-May-09 16:30N 47°56' W 122°30'5 9.4
2018-May-09 16:00N 47°52' W 122°27'510.2
2018-May-09 15:30N 47°47' W 122°25'5 9.8
2018-May-09 15:00N 47°42' W 122°25'2 4.6
2018-May-09 14:30N 47°40' W 122°24'1 1.6
2018-May-09 14:00N 47°40' W 122°23'0 0.4
2018-May-09 13:30N 47°40' W 122°22'0 0.3
2018-May-09 13:00N 47°39' W 122°22'0 0.0
2018-May-09 12:30N 47°39' W 122°22'0 0.0
2018-May-09 12:00N 47°39' W 122°22'0 0.0
2018-May-09 11:30N 47°39' W 122°22'0 0.0
2018-May-09 11:00N 47°39' W 122°22'0 0.0
2018-May-09 10:30N 47°39' W 122°22'0 0.0
2018-May-09 10:00N 47°39' W 122°22'0 0.0
2018-May-09 09:30N 47°39' W 122°22'0 0.0
2018-May-09 09:00N 47°39' W 122°22'0 0.0
2018-May-09 08:30N 47°39' W 122°22'0 0.0
2018-May-09 08:00N 47°39' W 122°22'0 0.0
2018-May-09 07:30N 47°39' W 122°22'0 0.0
2018-May-09 07:00N 47°39' W 122°22'0 0.0
2018-May-09 06:30N 47°39' W 122°22'0 0.0
2018-May-09 06:00N 47°39' W 122°22'0 0.0
2018-May-09 05:30N 47°39' W 122°22'0 0.0
2018-May-09 05:00N 47°39' W 122°22'0 0.0
2018-May-09 04:30N 47°39' W 122°22'0 0.0
2018-May-09 04:00N 47°39' W 122°22'0 0.0
2018-May-09 03:30N 47°39' W 122°22'0 0.0
2018-May-09 03:00N 47°39' W 122°22'0 0.0
2018-May-09 02:30N 47°39' W 122°22'0 0.0
2018-May-09 02:00N 47°39' W 122°22'0 0.0
2018-May-09 01:30N 47°39' W 122°22'0 0.0
2018-May-09 01:00N 47°39' W 122°22'0 0.0
2018-May-09 00:30N 47°39' W 122°22'0 0.0
2018-May-09 00:00N 47°39' W 122°22'0 0.0
2018-May-08 23:30N 47°39' W 122°22'0 0.0
2018-May-08 23:00N 47°39' W 122°22'0 0.0
2018-May-08 22:30N 47°39' W 122°22'0 0.0
2018-May-08 22:00N 47°39' W 122°22'0 0.0
2018-May-08 21:30N 47°39' W 122°22'0 0.0
2018-May-08 21:00N 47°39' W 122°22'0 0.0
2018-May-08 20:30N 47°39' W 122°22'0 0.0
2018-May-08 20:00N 47°39' W 122°22'0 0.0
2018-May-08 19:30N 47°39' W 122°22'0 0.0
2018-May-08 19:00N 47°39' W 122°22'0 0.0
2018-May-08 18:30N 47°39' W 122°22'0 0.0
2018-May-08 18:00N 47°39' W 122°22'0 0.0
2018-May-08 17:30N 47°39' W 122°22'0 0.0
2018-May-08 17:00N 47°39' W 122°22'0 0.0
2018-May-08 16:30N 47°39' W 122°22'0 0.0
2018-May-08 16:00N 47°39' W 122°22'0 0.0
2018-May-08 15:30N 47°39' W 122°22'0 0.0
2018-May-08 15:00N 47°39' W 122°22'0 0.0
2018-May-08 14:30N 47°39' W 122°22'0 0.0
2018-May-08 14:00N 47°39' W 122°22'0 0.0
2018-May-08 13:30N 47°39' W 122°22'0 0.0
2018-May-08 13:00N 47°39' W 122°22'0 0.0
2018-May-08 12:30N 47°39' W 122°22'0 0.0
2018-May-08 12:00N 47°39' W 122°22'0 0.0
2018-May-08 11:30N 47°39' W 122°22'0 0.0
2018-May-08 11:00N 47°39' W 122°22'0 0.0
2018-May-08 10:30N 47°39' W 122°22'0 0.0
2018-May-08 10:00N 47°39' W 122°22'0 0.0
2018-May-08 09:30N 47°39' W 122°22'0 0.0
2018-May-08 09:00N 47°39' W 122°22'0 0.0
2018-May-08 08:30N 47°39' W 122°22'0 0.0
2018-May-08 07:59N 47°39' W 122°22'0 0.0
2018-May-08 07:30N 47°39' W 122°22'0 0.0
2018-May-08 07:00N 47°39' W 122°22'0 0.0
2018-May-08 06:30N 47°39' W 122°22'0 0.0
2018-May-08 06:00N 47°39' W 122°22'0 0.0
2018-May-08 05:30N 47°39' W 122°22'0 0.0
2018-May-08 05:00N 47°39' W 122°22'0 0.0
2018-May-08 04:30N 47°39' W 122°22'0 0.0
2018-May-08 04:00N 47°39' W 122°22'0 0.0
2018-May-08 03:30N 47°39' W 122°22'0 0.0
2018-May-08 03:00N 47°39' W 122°22'0 0.0
2018-May-08 02:30N 47°39' W 122°22'0 0.0
2018-May-08 02:00N 47°39' W 122°22'0 0.0
2018-May-08 01:30N 47°39' W 122°22'0 0.0
2018-May-08 01:00N 47°39' W 122°22'0 0.0
2018-May-08 00:30N 47°39' W 122°22'0 0.0
2018-May-08 00:00N 47°39' W 122°22'0 0.0
2018-May-07 23:30N 47°39' W 122°22'0 0.0
2018-May-07 23:00N 47°39' W 122°22'0 0.0
2018-May-07 22:30N 47°39' W 122°22'0 0.0
2018-May-07 22:00N 47°39' W 122°22'0 0.0
2018-May-07 21:30N 47°39' W 122°22'0 0.0
2018-May-07 21:00N 47°39' W 122°22'0 0.0
2018-May-07 20:30N 47°39' W 122°22'0 0.0
2018-May-07 20:00N 47°39' W 122°22'0 0.0
2018-May-07 19:30N 47°39' W 122°22'0 0.0
2018-May-07 19:00N 47°39' W 122°22'0 0.0
2018-May-07 18:30N 47°39' W 122°22'0 0.0
2018-May-07 18:00N 47°39' W 122°22'0 0.0
2018-May-07 17:30N 47°39' W 122°22'0 0.0
2018-May-07 17:00N 47°39' W 122°22'0 0.0
2018-May-07 16:30N 47°39' W 122°22'0 0.0
2018-May-07 16:00N 47°39' W 122°22'0 0.0
2018-May-07 15:30N 47°39' W 122°22'0 0.0
2018-May-07 15:00N 47°39' W 122°22'0 0.0
2018-May-07 14:30N 47°39' W 122°22'0 0.0
2018-May-07 14:00N 47°39' W 122°22'0 0.0
2018-May-07 13:30N 47°39' W 122°22'0 0.0
2018-May-07 13:00N 47°39' W 122°22'0 0.0
2018-May-07 12:30N 47°39' W 122°22'0 0.0
2018-May-07 12:00N 47°39' W 122°22'0 0.0
2018-May-07 11:30N 47°39' W 122°22'0 0.0
2018-May-07 11:00N 47°39' W 122°22'0 0.0
2018-May-07 10:30N 47°39' W 122°22'0 0.0
2018-May-07 10:00N 47°39' W 122°22'0 0.0
2018-May-07 09:30N 47°39' W 122°22'0 0.0
2018-May-07 09:00N 47°39' W 122°22'0 0.0
2018-May-07 08:30N 47°39' W 122°22'0 0.0
2018-May-07 08:00N 47°39' W 122°22'0 0.0
2018-May-07 07:29N 47°39' W 122°22'0 0.0
2018-May-07 07:00N 47°39' W 122°22'0 0.0
2018-May-07 06:30N 47°39' W 122°22'0 0.0
2018-May-07 06:00N 47°39' W 122°22'0 0.0
2018-May-07 05:30N 47°39' W 122°22'0 0.0
2018-May-07 05:00N 47°39' W 122°22'0 0.0
2018-May-07 04:30N 47°39' W 122°22'0 0.0
2018-May-07 04:00N 47°39' W 122°22'0 0.0
2018-May-07 03:30N 47°39' W 122°22'0 0.0
2018-May-07 03:00N 47°39' W 122°22'0 0.0
2018-May-07 02:30N 47°39' W 122°22'0 0.0
2018-May-07 02:00N 47°39' W 122°22'0 0.0
2018-May-07 01:30N 47°39' W 122°22'0 0.0
2018-May-07 01:00N 47°39' W 122°22'0 0.0
2018-May-07 00:30N 47°39' W 122°22'0 0.0
2018-May-07 00:00N 47°39' W 122°22'0 0.0
2018-May-06 23:30N 47°39' W 122°22'0 0.0
2018-May-06 23:00N 47°39' W 122°22'0 0.0
2018-May-06 22:30N 47°39' W 122°22'0 0.0
2018-May-06 22:00N 47°39' W 122°22'0 0.0
2018-May-06 21:30N 47°39' W 122°22'0 0.0
2018-May-06 21:00N 47°39' W 122°22'0 0.0
2018-May-06 20:30N 47°39' W 122°22'0 0.0
2018-May-06 20:00N 47°39' W 122°22'0 0.0
2018-May-06 19:30N 47°39' W 122°22'0 0.0
2018-May-06 19:00N 47°39' W 122°22'0 0.0
2018-May-06 18:30N 47°39' W 122°22'0 0.0
2018-May-06 18:00N 47°39' W 122°22'0 0.0
2018-May-06 17:30N 47°39' W 122°22'0 0.0
2018-May-06 17:00N 47°39' W 122°22'0 0.0
2018-May-06 16:30N 47°39' W 122°22'0 0.0
2018-May-06 16:00N 47°39' W 122°22'0 0.0
2018-May-06 15:30N 47°39' W 122°22'0 0.0
2018-May-06 15:00N 47°39' W 122°22'0 0.0
2018-May-06 14:30N 47°39' W 122°22'0 0.0
2018-May-06 14:00N 47°39' W 122°22'0 0.0
2018-May-06 13:30N 47°39' W 122°22'0 0.0
2018-May-06 13:00N 47°39' W 122°22'0 0.0
2018-May-06 12:30N 47°39' W 122°22'0 0.0
2018-May-06 12:00N 47°39' W 122°22'0 0.0
2018-May-06 11:30N 47°39' W 122°22'0 0.0
2018-May-06 11:00N 47°39' W 122°22'0 0.0
2018-May-06 10:30N 47°39' W 122°22'0 0.0
2018-May-06 10:00N 47°39' W 122°22'0 0.0
2018-May-06 09:30N 47°39' W 122°22'0 0.0
2018-May-06 09:00N 47°39' W 122°22'0 0.0
2018-May-06 08:30N 47°39' W 122°22'0 0.0
2018-May-06 08:00N 47°39' W 122°22'0 0.0
2018-May-06 07:30N 47°39' W 122°22'0 0.0
2018-May-06 07:00N 47°39' W 122°22'0 0.0
2018-May-06 06:30N 47°39' W 122°22'0 0.0
2018-May-06 06:00N 47°39' W 122°22'0 0.0
2018-May-06 05:30N 47°39' W 122°22'0 0.0
2018-May-06 05:00N 47°39' W 122°22'0 0.0
2018-May-06 04:30N 47°39' W 122°22'0 0.0
2018-May-06 04:00N 47°39' W 122°22'0 0.0
2018-May-06 03:30N 47°39' W 122°22'0 0.0
2018-May-06 03:00N 47°39' W 122°22'0 0.0
2018-May-06 02:30N 47°39' W 122°22'0 0.0
2018-May-06 02:00N 47°39' W 122°22'0 0.0
2018-May-06 01:30N 47°39' W 122°22'0 0.0
2018-May-06 01:00N 47°39' W 122°22'0 0.0
2018-May-06 00:30N 47°39' W 122°22'0 0.0
2018-May-06 00:00N 47°39' W 122°22'0 0.0
2018-May-05 23:30N 47°39' W 122°22'0 0.0
2018-May-05 23:00N 47°39' W 122°22'0 0.0
2018-May-05 22:30N 47°39' W 122°22'0 0.0
2018-May-05 22:00N 47°39' W 122°22'0 0.0
2018-May-05 21:30N 47°39' W 122°22'0 0.0
2018-May-05 21:00N 47°39' W 122°22'0 0.0
2018-May-05 20:30N 47°39' W 122°22'0 0.0
2018-May-05 20:00N 47°39' W 122°22'0 0.0
2018-May-05 19:30N 47°39' W 122°22'0 0.0
2018-May-05 19:00N 47°39' W 122°22'0 0.0
2018-May-05 18:30N 47°39' W 122°22'  
Track history (hours):
 
Tides and Currents Weather Stations Pressure Air Temp Water Temp Dewpoint Dewpoint Depression Visibility Wind Speed Wind Dir Waves Ship Positions

Retriever

Owner: Retriever Tender Alaska, LLC, Astoria, OR. More information available from US FCC via Universal Licensing System and Coast Guard Vessel Documentation Center.

Last reported at 2018-May-15 18:13 UTC. Time now 2018-Jun-25 19:29 UTC.
Position N 58°15' W 136°03'.
Warning: this ship's position is 41 days out of date.

Length 40 m; draft 3 m.

Type: . MMSI: 367487020.

Date/timePositionNaut miles runAvg speedWind from/ knotsBaromVisibWave heightAir tempDewpointWater temp
2018-May-15 18:13N 58°15' W 136°03'1 5.8
2018-May-15 17:59N 58°16' W 136°01'3 6.3
2018-May-15 17:27N 58°18' W 135°55'  
2018-May-12 10:48N 54°45' W 130°55'10 9.3
2018-May-12 09:43N 54°38' W 130°42'2 8.6
2018-May-12 09:28N 54°36' W 130°40'4 8.6
2018-May-12 09:00N 54°32' W 130°39'5 9.1
2018-May-12 08:30N 54°28' W 130°37'5 9.0
2018-May-12 08:00N 54°23' W 130°36'5 9.0
2018-May-12 07:30N 54°19' W 130°34'4 9.1
2018-May-12 07:00N 54°15' W 130°31'5 9.3
2018-May-12 06:30N 54°11' W 130°27'5 9.2
2018-May-12 06:00N 54°07' W 130°23'5 9.1
2018-May-12 05:30N 54°04' W 130°16'5 9.5
2018-May-12 05:00N 53°60' W 130°13'4 8.8
2018-May-12 04:30N 53°55' W 130°11'4 8.4
2018-May-12 04:00N 53°53' W 130°06'4 7.3
2018-May-12 03:30N 53°50' W 130°01'4 7.1
2018-May-12 03:00N 53°48' W 129°57'96 7.5
2018-May-11 14:16N 52°28' W 128°27'2 9.6
2018-May-11 14:00N 52°26' W 128°29'6 8.4
2018-May-11 13:15N 52°19' W 128°30'2 9.5
2018-May-11 13:00N 52°17' W 128°29'4 7.9
2018-May-11 12:30N 52°15' W 128°24'5 9.4
2018-May-11 12:00N 52°15' W 128°16'5 9.1
2018-May-11 11:29N 52°13' W 128°09'3 7.3
2018-May-11 11:00N 52°09' W 128°08'4 9.0
2018-May-11 10:31N 52°05' W 128°07'5 9.0
2018-May-11 10:00N 52°05' W 127°59'4 8.0
2018-May-11 09:30N 52°02' W 127°55'4 8.9
2018-May-11 09:00N 51°57' W 127°56'5 9.0
2018-May-11 08:30N 51°53' W 127°57'5 9.3
2018-May-11 08:00N 51°48' W 127°57'5 9.3
2018-May-11 07:30N 51°43' W 127°55'4 9.0
2018-May-11 07:00N 51°39' W 127°54'5 9.2
2018-May-11 06:30N 51°35' W 127°52'5 9.4
2018-May-11 06:00N 51°30' W 127°51'5 9.0
2018-May-11 05:30N 51°25' W 127°52'4 8.9
2018-May-11 05:00N 51°23' W 127°57'5 8.3
2018-May-11 04:24N 51°18' W 127°55'4 8.7
2018-May-11 03:53N 51°14' W 127°53'4 9.1
2018-May-11 03:28N 51°10' W 127°51'4 9.1
2018-May-11 03:00N 51°06' W 127°48'5 8.8
2018-May-11 02:29N 51°02' W 127°46'4 7.5
2018-May-11 02:00N 50°58' W 127°45'4 8.4
2018-May-11 01:30N 50°55' W 127°40'4 8.8
2018-May-11 01:00N 50°52' W 127°35'4 8.9
2018-May-11 00:30N 50°50' W 127°29'4 8.8
2018-May-11 00:00N 50°47' W 127°24'5 9.1
2018-May-10 23:28N 50°44' W 127°18'5 9.2
2018-May-10 22:54N 50°40' W 127°13'4 9.6
2018-May-10 22:28N 50°37' W 127°07'5 9.6
2018-May-10 21:59N 50°36' W 127°00'5 8.9
2018-May-10 21:27N 50°34' W 126°54'57 9.1
2018-May-10 15:12N 50°20' W 125°27'2 9.1
2018-May-10 15:00N 50°19' W 125°25'5 9.8
2018-May-10 14:30N 50°14' W 125°23'510.5
2018-May-10 14:00N 50°09' W 125°21'511.1
2018-May-10 13:30N 50°05' W 125°16'712.5
2018-May-10 12:57N 49°59' W 125°11'4 9.8
2018-May-10 12:30N 49°56' W 125°06'5 9.4
2018-May-10 12:00N 49°52' W 125°01'5 9.4
2018-May-10 11:30N 49°49' W 124°56'1 1.0
2018-May-10 11:00N 49°48' W 124°56'3 6.2
2018-May-10 10:30N 49°46' W 124°53'5 9.0
2018-May-10 10:00N 49°42' W 124°48'4 8.8
2018-May-10 09:30N 49°39' W 124°43'5 9.2
2018-May-10 08:59N 49°36' W 124°38'12 8.9
2018-May-10 07:37N 49°28' W 124°24'4 8.9
2018-May-10 07:11N 49°26' W 124°19'2 9.1
2018-May-10 07:00N 49°25' W 124°16'32 8.8
2018-May-10 03:20N 49°09' W 123°34'10 9.7
2018-May-10 02:21N 49°02' W 123°24'2 6.8
2018-May-10 02:00N 49°02' W 123°20'16 8.5
2018-May-10 00:04N 48°52' W 123°00'13 8.4
2018-May-09 22:34N 48°44' W 122°45'1 8.8
2018-May-09 22:29N 48°43' W 122°45'4 8.0
2018-May-09 22:00N 48°40' W 122°43'4 8.3
2018-May-09 21:30N 48°36' W 122°45'4 8.3
2018-May-09 21:00N 48°32' W 122°45'4 8.4
2018-May-09 20:28N 48°27' W 122°44'10 8.9
2018-May-09 19:20N 48°17' W 122°46'3 8.6
2018-May-09 19:00N 48°14' W 122°47'20 8.7
2018-May-09 16:44N 47°57' W 122°32'2 9.4
2018-May-09 16:30N 47°56' W 122°30'5 9.4
2018-May-09 16:00N 47°52' W 122°27'510.2
2018-May-09 15:30N 47°47' W 122°25'5 9.8
2018-May-09 15:00N 47°42' W 122°25'2 4.6
2018-May-09 14:30N 47°40' W 122°24'1 1.6
2018-May-09 14:00N 47°40' W 122°23'0 0.4
2018-May-09 13:30N 47°40' W 122°22'0 0.3
2018-May-09 13:00N 47°39' W 122°22'0 0.0
2018-May-09 12:30N 47°39' W 122°22'0 0.0
2018-May-09 12:00N 47°39' W 122°22'0 0.0
2018-May-09 11:30N 47°39' W 122°22'0 0.0
2018-May-09 11:00N 47°39' W 122°22'0 0.0
2018-May-09 10:30N 47°39' W 122°22'0 0.0
2018-May-09 10:00N 47°39' W 122°22'0 0.0
2018-May-09 09:30N 47°39' W 122°22'0 0.0
2018-May-09 09:00N 47°39' W 122°22'0 0.0
2018-May-09 08:30N 47°39' W 122°22'0 0.0
2018-May-09 08:00N 47°39' W 122°22'0 0.0
2018-May-09 07:30N 47°39' W 122°22'0 0.0
2018-May-09 07:00N 47°39' W 122°22'0 0.0
2018-May-09 06:30N 47°39' W 122°22'0 0.0
2018-May-09 06:00N 47°39' W 122°22'0 0.0
2018-May-09 05:30N 47°39' W 122°22'0 0.0
2018-May-09 05:00N 47°39' W 122°22'0 0.0
2018-May-09 04:30N 47°39' W 122°22'0 0.0
2018-May-09 04:00N 47°39' W 122°22'0 0.0
2018-May-09 03:30N 47°39' W 122°22'0 0.0
2018-May-09 03:00N 47°39' W 122°22'0 0.0
2018-May-09 02:30N 47°39' W 122°22'0 0.0
2018-May-09 02:00N 47°39' W 122°22'0 0.0
2018-May-09 01:30N 47°39' W 122°22'0 0.0
2018-May-09 01:00N 47°39' W 122°22'0 0.0
2018-May-09 00:30N 47°39' W 122°22'0 0.0
2018-May-09 00:00N 47°39' W 122°22'0 0.0
2018-May-08 23:30N 47°39' W 122°22'0 0.0
2018-May-08 23:00N 47°39' W 122°22'0 0.0
2018-May-08 22:30N 47°39' W 122°22'0 0.0
2018-May-08 22:00N 47°39' W 122°22'0 0.0
2018-May-08 21:30N 47°39' W 122°22'0 0.0
2018-May-08 21:00N 47°39' W 122°22'0 0.0
2018-May-08 20:30N 47°39' W 122°22'0 0.0
2018-May-08 20:00N 47°39' W 122°22'0 0.0
2018-May-08 19:30N 47°39' W 122°22'0 0.0
2018-May-08 19:00N 47°39' W 122°22'0 0.0
2018-May-08 18:30N 47°39' W 122°22'0 0.0
2018-May-08 18:00N 47°39' W 122°22'0 0.0
2018-May-08 17:30N 47°39' W 122°22'0 0.0
2018-May-08 17:00N 47°39' W 122°22'0 0.0
2018-May-08 16:30N 47°39' W 122°22'0 0.0
2018-May-08 16:00N 47°39' W 122°22'0 0.0
2018-May-08 15:30N 47°39' W 122°22'0 0.0
2018-May-08 15:00N 47°39' W 122°22'0 0.0
2018-May-08 14:30N 47°39' W 122°22'0 0.0
2018-May-08 14:00N 47°39' W 122°22'0 0.0
2018-May-08 13:30N 47°39' W 122°22'0 0.0
2018-May-08 13:00N 47°39' W 122°22'0 0.0
2018-May-08 12:30N 47°39' W 122°22'0 0.0
2018-May-08 12:00N 47°39' W 122°22'0 0.0
2018-May-08 11:30N 47°39' W 122°22'0 0.0
2018-May-08 11:00N 47°39' W 122°22'0 0.0
2018-May-08 10:30N 47°39' W 122°22'0 0.0
2018-May-08 10:00N 47°39' W 122°22'0 0.0
2018-May-08 09:30N 47°39' W 122°22'0 0.0
2018-May-08 09:00N 47°39' W 122°22'0 0.0
2018-May-08 08:30N 47°39' W 122°22'0 0.0
2018-May-08 07:59N 47°39' W 122°22'0 0.0
2018-May-08 07:30N 47°39' W 122°22'0 0.0
2018-May-08 07:00N 47°39' W 122°22'0 0.0
2018-May-08 06:30N 47°39' W 122°22'0 0.0
2018-May-08 06:00N 47°39' W 122°22'0 0.0
2018-May-08 05:30N 47°39' W 122°22'0 0.0
2018-May-08 05:00N 47°39' W 122°22'0 0.0
2018-May-08 04:30N 47°39' W 122°22'0 0.0
2018-May-08 04:00N 47°39' W 122°22'0 0.0
2018-May-08 03:30N 47°39' W 122°22'0 0.0
2018-May-08 03:00N 47°39' W 122°22'0 0.0
2018-May-08 02:30N 47°39' W 122°22'0 0.0
2018-May-08 02:00N 47°39' W 122°22'0 0.0
2018-May-08 01:30N 47°39' W 122°22'0 0.0
2018-May-08 01:00N 47°39' W 122°22'0 0.0
2018-May-08 00:30N 47°39' W 122°22'0 0.0
2018-May-08 00:00N 47°39' W 122°22'0 0.0
2018-May-07 23:30N 47°39' W 122°22'0 0.0
2018-May-07 23:00N 47°39' W 122°22'0 0.0
2018-May-07 22:30N 47°39' W 122°22'0 0.0
2018-May-07 22:00N 47°39' W 122°22'0 0.0
2018-May-07 21:30N 47°39' W 122°22'0 0.0
2018-May-07 21:00N 47°39' W 122°22'0 0.0
2018-May-07 20:30N 47°39' W 122°22'0 0.0
2018-May-07 20:00N 47°39' W 122°22'0 0.0
2018-May-07 19:30N 47°39' W 122°22'0 0.0
2018-May-07 19:00N 47°39' W 122°22'0 0.0
2018-May-07 18:30N 47°39' W 122°22'0 0.0
2018-May-07 18:00N 47°39' W 122°22'0 0.0
2018-May-07 17:30N 47°39' W 122°22'0 0.0
2018-May-07 17:00N 47°39' W 122°22'0 0.0
2018-May-07 16:30N 47°39' W 122°22'0 0.0
2018-May-07 16:00N 47°39' W 122°22'0 0.0
2018-May-07 15:30N 47°39' W 122°22'0 0.0
2018-May-07 15:00N 47°39' W 122°22'0 0.0
2018-May-07 14:30N 47°39' W 122°22'0 0.0
2018-May-07 14:00N 47°39' W 122°22'0 0.0
2018-May-07 13:30N 47°39' W 122°22'0 0.0
2018-May-07 13:00N 47°39' W 122°22'0 0.0
2018-May-07 12:30N 47°39' W 122°22'0 0.0
2018-May-07 12:00N 47°39' W 122°22'0 0.0
2018-May-07 11:30N 47°39' W 122°22'0 0.0
2018-May-07 11:00N 47°39' W 122°22'0 0.0
2018-May-07 10:30N 47°39' W 122°22'0 0.0
2018-May-07 10:00N 47°39' W 122°22'0 0.0
2018-May-07 09:30N 47°39' W 122°22'0 0.0
2018-May-07 09:00N 47°39' W 122°22'0 0.0
2018-May-07 08:30N 47°39' W 122°22'0 0.0
2018-May-07 08:00N 47°39' W 122°22'0 0.0
2018-May-07 07:29N 47°39' W 122°22'0 0.0
2018-May-07 07:00N 47°39' W 122°22'0 0.0
2018-May-07 06:30N 47°39' W 122°22'0 0.0
2018-May-07 06:00N 47°39' W 122°22'0 0.0
2018-May-07 05:30N 47°39' W 122°22'0 0.0
2018-May-07 05:00N 47°39' W 122°22'0 0.0
2018-May-07 04:30N 47°39' W 122°22'0 0.0
2018-May-07 04:00N 47°39' W 122°22'0 0.0
2018-May-07 03:30N 47°39' W 122°22'0 0.0
2018-May-07 03:00N 47°39' W 122°22'0 0.0
2018-May-07 02:30N 47°39' W 122°22'0 0.0
2018-May-07 02:00N 47°39' W 122°22'0 0.0
2018-May-07 01:30N 47°39' W 122°22'0 0.0
2018-May-07 01:00N 47°39' W 122°22'0 0.0
2018-May-07 00:30N 47°39' W 122°22'0 0.0
2018-May-07 00:00N 47°39' W 122°22'0 0.0
2018-May-06 23:30N 47°39' W 122°22'0 0.0
2018-May-06 23:00N 47°39' W 122°22'0 0.0
2018-May-06 22:30N 47°39' W 122°22'0 0.0
2018-May-06 22:00N 47°39' W 122°22'0 0.0
2018-May-06 21:30N 47°39' W 122°22'0 0.0
2018-May-06 21:00N 47°39' W 122°22'0 0.0
2018-May-06 20:30N 47°39' W 122°22'0 0.0
2018-May-06 20:00N 47°39' W 122°22'0 0.0
2018-May-06 19:30N 47°39' W 122°22'0 0.0
2018-May-06 19:00N 47°39' W 122°22'0 0.0
2018-May-06 18:30N 47°39' W 122°22'0 0.0
2018-May-06 18:00N 47°39' W 122°22'0 0.0
2018-May-06 17:30N 47°39' W 122°22'0 0.0
2018-May-06 17:00N 47°39' W 122°22'0 0.0
2018-May-06 16:30N 47°39' W 122°22'0 0.0
2018-May-06 16:00N 47°39' W 122°22'0 0.0
2018-May-06 15:30N 47°39' W 122°22'0 0.0
2018-May-06 15:00N 47°39' W 122°22'0 0.0
2018-May-06 14:30N 47°39' W 122°22'0 0.0
2018-May-06 14:00N 47°39' W 122°22'0 0.0
2018-May-06 13:30N 47°39' W 122°22'0 0.0
2018-May-06 13:00N 47°39' W 122°22'0 0.0
2018-May-06 12:30N 47°39' W 122°22'0 0.0
2018-May-06 12:00N 47°39' W 122°22'0 0.0
2018-May-06 11:30N 47°39' W 122°22'0 0.0
2018-May-06 11:00N 47°39' W 122°22'0 0.0
2018-May-06 10:30N 47°39' W 122°22'0 0.0
2018-May-06 10:00N 47°39' W 122°22'0 0.0
2018-May-06 09:30N 47°39' W 122°22'0 0.0
2018-May-06 09:00N 47°39' W 122°22'0 0.0
2018-May-06 08:30N 47°39' W 122°22'0 0.0
2018-May-06 08:00N 47°39' W 122°22'0 0.0
2018-May-06 07:30N 47°39' W 122°22'0 0.0
2018-May-06 07:00N 47°39' W 122°22'0 0.0
2018-May-06 06:30N 47°39' W 122°22'0 0.0
2018-May-06 06:00N 47°39' W 122°22'0 0.0
2018-May-06 05:30N 47°39' W 122°22'0 0.0
2018-May-06 05:00N 47°39' W 122°22'0 0.0
2018-May-06 04:30N 47°39' W 122°22'0 0.0
2018-May-06 04:00N 47°39' W 122°22'0 0.0
2018-May-06 03:30N 47°39' W 122°22'0 0.0
2018-May-06 03:00N 47°39' W 122°22'0 0.0
2018-May-06 02:30N 47°39' W 122°22'0 0.0
2018-May-06 02:00N 47°39' W 122°22'0 0.0
2018-May-06 01:30N 47°39' W 122°22'0 0.0
2018-May-06 01:00N 47°39' W 122°22'0 0.0
2018-May-06 00:30N 47°39' W 122°22'0 0.0
2018-May-06 00:00N 47°39' W 122°22'0 0.0
2018-May-05 23:30N 47°39' W 122°22'0 0.0
2018-May-05 23:00N 47°39' W 122°22'0 0.0
2018-May-05 22:30N 47°39' W 122°22'0 0.0
2018-May-05 22:00N 47°39' W 122°22'0 0.0
2018-May-05 21:30N 47°39' W 122°22'0 0.0
2018-May-05 21:00N 47°39' W 122°22'0 0.0
2018-May-05 20:30N 47°39' W 122°22'0 0.0
2018-May-05 20:00N 47°39' W 122°22'0 0.0
2018-May-05 19:30N 47°39' W 122°22'0 0.0
2018-May-05 19:00N 47°39' W 122°22'0 0.0
2018-May-05 18:30N 47°39' W 122°22'  

Dump ship's entire track history